Tropical Cyclones
[Index]
Main Index Home Page Stock Weather Photos Extreme Storms Discussion Storm News and Storm Chasing Reports Tropical Cyclones / Hurricanes / Typhoons Weather Data and Links Wild Fires / Bushfires Weather Observation Techniques Weather Picture Catalogue Tornado Pictures and Reports Stock Video Footage and DVDs for sale
Season 1989-1990 Tropical Cyclone IVOR Track Map
Season 1989-1990 Summaries: [BoM-AU] [JTWC-AU] [JTWC-SIO] [JTWC-SPAC] [JTWC-SH]
<<- Previous TC | JTWC 1989-1990 Season | Next TC ->>

click for intensity scale information  Lat/long Grid: Show Hide

 Date Labels: Show Hide

Joint Typhoon Warning Centre Cyclone Data

Name: IVOR

14 Mar 1990 06:00 UTC to 23 Mar 1990 06:00 UTC

    date/time    lat    long     hPa   cat  kts
1990-03-14 06   13.0   170.0                  15          
1990-03-14 12   13.4   168.8                  15          
1990-03-14 18   14.1   167.6                  15          
1990-03-15 00   14.5   166.5                  20          
1990-03-15 06   15.1   165.0                  20          
1990-03-15 12   15.5   163.8                  20          
1990-03-15 18   16.5   162.3                  25          
1990-03-16 00   16.7   160.7                  25          
1990-03-16 06   16.9   158.5                  30          
1990-03-16 12   16.8   156.9                  35          
1990-03-16 18   16.6   155.2            1     40          
1990-03-17 00   16.4   153.3            1     45          
1990-03-17 06   15.8   151.8            1     50          
1990-03-17 12   15.0   150.7            2     55          
1990-03-17 18   14.4   149.6            2     55          
1990-03-18 00   14.1   148.6            2     65          
1990-03-18 06   13.9   147.7            3     75          
1990-03-18 12   13.8   147.1            3     75          
1990-03-18 18   13.9   146.2            3     75          
1990-03-19 00   14.1   145.5            2     70          
1990-03-19 06   14.1   144.7            2     60          
1990-03-19 12   14.1   143.8            1     50          
1990-03-19 18   14.1   142.9            1     50          
1990-03-20 00   14.0   142.2            1     40          
1990-03-20 06   14.0   141.8                  35          
1990-03-20 12   14.0   141.6                  35          
1990-03-20 18   14.2   141.6                  35          
1990-03-21 00   14.3   141.6                  35          
1990-03-21 06   14.5   141.7                  35          
1990-03-21 12   14.6   141.9                  30          
1990-03-21 18   15.0   142.4                  30          
1990-03-22 00   15.7   142.9                  35          
1990-03-22 06   16.4   143.5                  35          
1990-03-22 12   16.7   143.9                  35          
1990-03-22 18   17.0   144.4                  30          
1990-03-23 00   17.1   144.8                  30          
1990-03-23 06   17.0   145.2                  25          
Winds are 1-min average.

Tropical cyclone tracks developed by Michael Bath using data from the Joint Typhoon Warning Centre Best Tracks and Google Maps.


[Australian Severe Weather index] [Copyright Notice] [Email Contacts] [Search This Site] [Privacy Policy]
Document: tropical_cyclone_ivor.htm Updated: 18 September 2016